createdAt,value
2019-04-29T00:00:53.180Z,33.04
2019-04-29T00:01:53.169Z,32.93
2019-04-29T00:02:53.157Z,32.84
2019-04-29T00:03:53.153Z,32.93
2019-04-29T00:04:53.134Z,32.84
2019-04-29T00:05:53.124Z,32.93
2019-04-29T00:06:53.113Z,33.04
2019-04-29T00:07:53.103Z,32.84
2019-04-29T00:08:53.091Z,32.84
2019-04-29T00:09:53.086Z,32.93
2019-04-29T00:10:53.069Z,33.14
2019-04-29T00:11:53.058Z,33.14
2019-04-29T00:12:53.046Z,32.84
2019-04-29T00:13:53.035Z,33.23
2019-04-29T00:14:53.025Z,32.64
2019-04-29T00:15:53.045Z,33.14
2019-04-29T00:16:53.002Z,32.74
2019-04-29T00:17:52.992Z,33.23
2019-04-29T00:18:52.980Z,33.14
2019-04-29T00:19:52.973Z,32.93
2019-04-29T00:20:52.959Z,33.23
2019-04-29T00:21:52.980Z,33.23
2019-04-29T00:22:52.937Z,33.04
2019-04-29T00:24:03.295Z,32.86
2019-04-29T00:24:53.913Z,32.74
2019-04-29T00:25:52.903Z,32.93
2019-04-29T00:26:52.894Z,32.84
2019-04-29T00:27:52.901Z,32.84
2019-04-29T00:28:52.870Z,33.23
2019-04-29T00:29:52.859Z,32.84
2019-04-29T00:30:52.850Z,32.84
2019-04-29T00:31:52.837Z,33.14
2019-04-29T00:32:52.826Z,32.84
2019-04-29T00:33:52.823Z,32.84
2019-04-29T00:34:52.803Z,32.84
2019-04-29T00:35:52.793Z,32.74
2019-04-29T00:36:52.784Z,32.64
2019-04-29T00:37:52.771Z,33.23
2019-04-29T00:38:52.759Z,32.84
2019-04-29T00:39:52.755Z,32.84
2019-04-29T00:40:52.739Z,32.74
2019-04-29T00:41:52.727Z,32.86
2019-04-29T00:42:52.715Z,32.86
2019-04-29T00:43:52.704Z,33.14
2019-04-29T00:44:52.693Z,32.84
2019-04-29T00:45:52.689Z,33.23
2019-04-29T00:46:52.670Z,32.95
2019-04-29T00:47:52.661Z,32.84
2019-04-29T00:48:52.648Z,32.93
2019-04-29T00:49:52.639Z,32.93
2019-04-29T00:50:52.631Z,32.84
2019-04-29T00:51:52.647Z,33.25
2019-04-29T00:52:52.605Z,33.23
2019-04-29T00:53:52.592Z,33.05
2019-04-29T00:54:52.582Z,32.84
2019-04-29T00:55:52.571Z,33.15
2019-04-29T00:56:52.559Z,32.95
2019-04-29T00:57:52.582Z,32.64
2019-04-29T00:58:52.538Z,32.84
2019-04-29T00:59:52.527Z,33.25
2019-04-29T01:00:52.516Z,32.86
2019-04-29T01:01:52.506Z,33.14
2019-04-29T01:02:52.495Z,32.95
2019-04-29T01:03:52.502Z,32.86
2019-04-29T01:04:52.472Z,32.86
2019-04-29T01:05:52.469Z,32.84
2019-04-29T01:06:52.450Z,33.05
2019-04-29T01:07:52.438Z,33.23
2019-04-29T01:08:52.428Z,33.05
2019-04-29T01:09:52.426Z,32.86
2019-04-29T01:10:52.405Z,33.23
2019-04-29T01:11:52.394Z,33.25
2019-04-29T01:12:52.384Z,32.75
2019-04-29T01:13:52.373Z,32.86
2019-04-29T01:14:52.361Z,33.23
2019-04-29T01:15:52.357Z,32.84
2019-04-29T01:16:52.340Z,32.95
2019-04-29T01:17:52.333Z,33.14
2019-04-29T01:18:52.319Z,32.86
2019-04-29T01:19:52.307Z,32.86
2019-04-29T01:20:52.295Z,32.95
2019-04-29T01:21:52.291Z,32.86
2019-04-29T01:22:52.274Z,32.95
2019-04-29T01:23:52.263Z,32.84
2019-04-29T01:24:52.251Z,32.86
2019-04-29T01:25:52.240Z,32.86
2019-04-29T01:26:52.232Z,32.86
2019-04-29T01:27:52.250Z,33.23
2019-04-29T01:28:52.207Z,32.93
2019-04-29T01:29:52.198Z,32.65
2019-04-29T01:30:52.185Z,32.86
2019-04-29T01:31:52.177Z,32.65
2019-04-29T01:32:52.164Z,32.86
2019-04-29T01:33:52.159Z,32.86
2019-04-29T01:34:52.147Z,33.04
2019-04-29T01:35:52.131Z,32.84
2019-04-29T01:36:52.123Z,32.84
2019-04-29T01:37:52.112Z,32.86
2019-04-29T01:38:52.096Z,32.86
2019-04-29T01:39:52.097Z,33.23
2019-04-29T01:40:52.075Z,32.86
2019-04-29T01:41:52.069Z,33.25
2019-04-29T01:42:52.053Z,33.15
2019-04-29T01:43:52.043Z,32.84
2019-04-29T01:44:52.031Z,32.84
2019-04-29T01:45:52.028Z,33.05
2019-04-29T01:46:52.012Z,32.65
2019-04-29T01:47:52.000Z,32.86
2019-04-29T01:48:51.990Z,33.14
2019-04-29T01:49:51.989Z,32.84
2019-04-29T01:50:51.968Z,33.25
2019-04-29T01:51:51.961Z,33.05
2019-04-29T01:52:51.943Z,32.86
2019-04-29T01:53:51.932Z,32.95
2019-04-29T01:54:51.922Z,33.23
2019-04-29T01:55:51.909Z,33.04
2019-04-29T01:56:51.899Z,32.65
2019-04-29T01:57:51.907Z,33.23
2019-04-29T01:58:51.877Z,33.14
2019-04-29T01:59:51.869Z,32.84
2019-04-29T02:00:51.855Z,31.94
2019-04-29T02:01:51.843Z,32.86
2019-04-29T02:02:51.895Z,33.25
2019-04-29T02:03:51.857Z,33.23
2019-04-29T02:04:51.814Z,33.25
2019-04-29T02:05:51.799Z,33.25
2019-04-29T02:06:51.789Z,33.25
2019-04-29T02:07:51.776Z,33.04
2019-04-29T02:08:51.765Z,33.23
2019-04-29T02:09:51.786Z,32.86
2019-04-29T02:10:51.744Z,32.65
2019-04-29T02:11:51.733Z,33.25
2019-04-29T02:12:51.721Z,33.25
2019-04-29T02:13:51.711Z,32.93
2019-04-29T02:14:51.701Z,33.04
2019-04-29T02:15:51.718Z,32.93
2019-04-29T02:16:51.678Z,33.25
2019-04-29T02:17:51.667Z,33.23
2019-04-29T02:18:51.656Z,32.86
2019-04-29T02:19:51.645Z,32.84
2019-04-29T02:20:51.633Z,33.23
2019-04-29T02:21:51.629Z,33.04
2019-04-29T02:22:51.612Z,32.86
2019-04-29T02:23:51.601Z,33.05
2019-04-29T02:24:51.589Z,32.84
2019-04-29T02:25:51.578Z,33.25
2019-04-29T02:26:51.567Z,32.95
2019-04-29T02:27:51.564Z,32.86
2019-04-29T02:28:51.546Z,33.25
2019-04-29T02:29:51.534Z,32.93
2019-04-29T02:30:51.523Z,32.86
2019-04-29T02:31:51.512Z,33.25
2019-04-29T02:32:51.500Z,32.84
2019-04-29T02:33:51.510Z,32.95
2019-04-29T02:34:51.479Z,32.86
2019-04-29T02:35:51.470Z,32.93
2019-04-29T02:36:51.456Z,32.86
2019-04-29T02:37:51.445Z,33.25
2019-04-29T02:38:51.434Z,32.86
2019-04-29T02:39:51.430Z,32.84
2019-04-29T02:40:51.414Z,32.93
2019-04-29T02:41:51.401Z,32.84
2019-04-29T02:42:51.400Z,32.86
2019-04-29T02:43:51.396Z,32.95
2019-04-29T02:44:51.369Z,32.95
2019-04-29T02:45:51.381Z,32.84
2019-04-29T02:46:51.347Z,32.86
2019-04-29T02:47:51.336Z,32.75
2019-04-29T02:48:51.329Z,32.86
2019-04-29T02:49:51.312Z,32.86
2019-04-29T02:50:51.302Z,32.86
2019-04-29T02:51:51.327Z,33.05
2019-04-29T02:52:51.280Z,32.86
2019-04-29T02:53:51.267Z,32.75
2019-04-29T02:54:51.257Z,33.05
2019-04-29T02:55:51.247Z,33.15
2019-04-29T02:56:51.236Z,33.15
2019-04-29T02:57:51.234Z,33.04
2019-04-29T02:58:51.216Z,32.75
2019-04-29T02:59:51.200Z,33.04
2019-04-29T03:00:51.191Z,32.84
2019-04-29T03:01:51.181Z,32.84
2019-04-29T03:02:51.170Z,32.86
2019-04-29T03:03:51.191Z,32.65
2019-04-29T03:04:51.146Z,32.95
2019-04-29T03:05:51.136Z,32.86
2019-04-29T03:06:51.124Z,32.95
2019-04-29T03:07:51.113Z,32.93
2019-04-29T03:08:51.107Z,32.95
2019-04-29T03:09:51.113Z,33.05
2019-04-29T03:10:51.098Z,32.84
2019-04-29T03:11:51.077Z,32.86
2019-04-29T03:12:51.057Z,32.86
2019-04-29T03:13:51.053Z,32.86
2019-04-29T03:14:51.036Z,32.86
2019-04-29T03:15:51.057Z,32.86
2019-04-29T03:16:51.028Z,32.65
2019-04-29T03:17:51.090Z,32.84
2019-04-29T03:18:50.991Z,32.95
2019-04-29T03:19:51.052Z,32.95
2019-04-29T03:20:50.969Z,32.95
2019-04-29T03:21:50.967Z,32.75
2019-04-29T03:22:50.953Z,32.86
2019-04-29T03:23:50.936Z,33.05
2019-04-29T03:24:50.925Z,32.95
2019-04-29T03:25:50.915Z,33.15
2019-04-29T03:26:50.907Z,32.95
2019-04-29T03:27:50.912Z,32.86
2019-04-29T03:28:50.882Z,32.56
2019-04-29T03:29:50.870Z,33.05
2019-04-29T03:30:50.859Z,32.95
2019-04-29T03:31:50.849Z,32.95
2019-04-29T03:32:50.872Z,33.15
2019-04-29T03:33:50.857Z,32.56
2019-04-29T03:34:50.815Z,33.05
2019-04-29T03:35:50.802Z,32.95
2019-04-29T03:36:50.793Z,33.05
2019-04-29T03:37:50.784Z,32.75
2019-04-29T03:38:50.771Z,33.05
2019-04-29T03:39:50.769Z,32.75
2019-04-29T03:40:50.747Z,32.75
2019-04-29T03:41:50.737Z,33.45
2019-04-29T03:42:50.728Z,32.95
2019-04-29T03:43:50.717Z,33.15
2019-04-29T03:44:50.704Z,32.35
2019-04-29T03:45:50.701Z,33.05
2019-04-29T03:46:50.714Z,33.44
2019-04-29T03:47:50.670Z,32.75
2019-04-29T03:48:50.664Z,33.05
2019-04-29T03:49:50.648Z,32.95
2019-04-29T03:50:50.638Z,32.65
2019-04-29T03:51:50.664Z,32.45
2019-04-29T03:52:50.619Z,32.75
2019-04-29T03:53:50.606Z,32.75
2019-04-29T03:54:50.595Z,32.75
2019-04-29T03:55:50.582Z,32.95
2019-04-29T03:56:50.571Z,33.05
2019-04-29T03:57:50.568Z,32.75
2019-04-29T03:58:50.552Z,32.75
2019-04-29T03:59:50.541Z,32.75
2019-04-29T04:00:50.527Z,32.75
2019-04-29T04:01:50.516Z,32.75
2019-04-29T04:02:50.523Z,32.75
2019-04-29T04:03:50.516Z,32.75
2019-04-29T04:04:50.483Z,33.05
2019-04-29T04:05:50.480Z,32.95
2019-04-29T04:06:50.462Z,32.75
2019-04-29T04:07:50.449Z,32.75
2019-04-29T04:09:04.804Z,32.75
2019-04-29T04:09:51.457Z,32.95
2019-04-29T04:10:50.420Z,32.75
2019-04-29T04:11:50.405Z,33.05
2019-04-29T04:12:50.465Z,32.75
2019-04-29T04:13:50.382Z,32.75
2019-04-29T04:14:50.374Z,32.95
2019-04-29T04:15:50.366Z,32.75
2019-04-29T04:16:50.357Z,32.75
2019-04-29T04:17:50.340Z,32.95
2019-04-29T04:18:50.327Z,32.75
2019-04-29T04:19:50.316Z,32.95
2019-04-29T04:20:50.306Z,33.05
2019-04-29T04:21:50.301Z,32.95
2019-04-29T04:22:50.284Z,32.75
2019-04-29T04:23:50.272Z,32.95
2019-04-29T04:24:50.262Z,33.05
2019-04-29T04:25:50.259Z,33.05
2019-04-29T04:26:50.240Z,32.95
2019-04-29T04:27:50.266Z,32.95
2019-04-29T04:28:50.218Z,32.95
2019-04-29T04:29:50.210Z,33.15
2019-04-29T04:30:50.198Z,32.56
2019-04-29T04:31:50.184Z,33.05
2019-04-29T04:32:50.173Z,32.86
2019-04-29T04:33:50.168Z,33.05
2019-04-29T04:34:50.159Z,32.95
2019-04-29T04:35:50.138Z,32.86
2019-04-29T04:36:50.130Z,32.95
2019-04-29T04:37:50.182Z,32.95
2019-04-29T04:38:50.109Z,33.05
2019-04-29T04:39:50.128Z,32.75
2019-04-29T04:40:50.085Z,33.05
2019-04-29T04:41:50.074Z,32.75
2019-04-29T04:42:50.068Z,32.86
2019-04-29T04:43:50.056Z,33.15
2019-04-29T04:44:50.127Z,32.95
2019-04-29T04:45:50.052Z,32.95
2019-04-29T04:46:50.020Z,33.05
2019-04-29T04:47:50.008Z,33.15
2019-04-29T04:48:50.003Z,33.15
2019-04-29T04:49:49.986Z,33.05
2019-04-29T04:50:49.973Z,33.05
2019-04-29T04:51:49.973Z,33.15
2019-04-29T04:52:49.953Z,33.15
2019-04-29T04:53:49.949Z,32.86
2019-04-29T04:54:49.930Z,32.95
2019-04-29T04:55:49.918Z,33.15
2019-04-29T04:56:49.906Z,33.15
2019-04-29T04:57:49.905Z,33.05
2019-04-29T04:58:49.884Z,33.15
2019-04-29T04:59:49.875Z,33.35
2019-04-29T05:00:49.863Z,33.05
2019-04-29T05:01:49.853Z,33.25
2019-04-29T05:02:49.840Z,33.25
2019-04-29T05:03:49.858Z,33.15
2019-04-29T05:04:49.819Z,33.25
2019-04-29T05:05:49.807Z,33.25
2019-04-29T05:06:49.800Z,33.25
2019-04-29T05:07:49.785Z,33.15
2019-04-29T05:08:49.774Z,33.15
2019-04-29T05:09:49.770Z,33.25
2019-04-29T05:10:49.752Z,32.95
2019-04-29T05:11:49.747Z,32.95
2019-04-29T05:12:49.729Z,33.25
2019-04-29T05:13:49.719Z,33.15
2019-04-29T05:14:49.708Z,33.25
2019-04-29T05:15:49.706Z,33.15
2019-04-29T05:16:49.685Z,33.25
2019-04-29T05:17:52.862Z,33.15
2019-04-29T05:18:49.686Z,33.15
2019-04-29T05:19:49.667Z,33.35
2019-04-29T05:20:49.659Z,33.35
2019-04-29T05:21:49.640Z,33.25
2019-04-29T05:22:49.623Z,33.25
2019-04-29T05:23:49.609Z,33.25
2019-04-29T05:24:49.598Z,33.25
2019-04-29T05:25:49.588Z,33.25
2019-04-29T05:26:49.576Z,33.15
2019-04-29T05:27:49.570Z,32.95
2019-04-29T05:28:49.553Z,33.25
2019-04-29T05:29:49.542Z,33.35
2019-04-29T05:30:49.531Z,33.25
2019-04-29T05:31:49.520Z,32.95
2019-04-29T05:32:49.509Z,33.25
2019-04-29T05:33:49.504Z,33.15
2019-04-29T05:34:49.487Z,33.35
2019-04-29T05:35:49.475Z,33.35
2019-04-29T05:36:49.464Z,32.86
2019-04-29T05:37:49.454Z,32.86
2019-04-29T05:38:49.441Z,33.15
2019-04-29T05:39:49.461Z,32.95
2019-04-29T05:40:49.420Z,32.95
2019-04-29T05:41:49.408Z,33.15
2019-04-29T05:42:52.635Z,33.35
2019-04-29T05:43:49.386Z,33.25
2019-04-29T05:44:49.384Z,33.25
2019-04-29T05:45:49.371Z,32.86
2019-04-29T05:46:49.354Z,32.95
2019-04-29T05:47:52.390Z,33.15
2019-04-29T05:48:50.330Z,33.05
2019-04-29T05:49:49.320Z,32.75
2019-04-29T05:50:52.142Z,33.35
2019-04-29T05:51:49.305Z,33.35
2019-04-29T05:52:49.886Z,33.15
2019-04-29T05:53:54.889Z,33.35
2019-04-29T05:54:50.264Z,33.15
2019-04-29T05:55:52.393Z,32.86
2019-04-29T05:56:49.245Z,32.95
2019-04-29T05:57:49.239Z,33.15
2019-04-29T05:58:49.221Z,33.45
2019-04-29T05:59:49.583Z,32.95
2019-04-29T06:00:49.199Z,33.95
2019-04-29T06:01:49.190Z,33.45
2019-04-29T06:02:49.176Z,33.75
2019-04-29T06:03:49.173Z,33.35
2019-04-29T06:04:52.336Z,33.75
2019-04-29T06:05:49.144Z,33.75
2019-04-29T06:06:49.135Z,33.45
2019-04-29T06:07:51.609Z,33.65
2019-04-29T06:08:49.111Z,32.95
2019-04-29T06:09:49.130Z,33.15
2019-04-29T06:10:49.088Z,33.15
2019-04-29T06:11:49.078Z,33.45
2019-04-29T06:12:49.067Z,32.95
2019-04-29T06:13:49.055Z,33.05
2019-04-29T06:14:49.044Z,33.05
2019-04-29T06:15:49.042Z,33.55
2019-04-29T06:16:49.024Z,33.15
2019-04-29T06:17:49.012Z,33.45
2019-04-29T06:18:49.000Z,33.15
2019-04-29T06:19:48.989Z,33.75
2019-04-29T06:20:48.978Z,33.35
2019-04-29T06:21:48.998Z,33.35
2019-04-29T06:22:48.955Z,33.35
2019-04-29T06:23:48.944Z,33.15
2019-04-29T06:24:48.933Z,33.15
2019-04-29T06:25:48.923Z,33.75
2019-04-29T06:26:48.912Z,33.55
2019-04-29T06:27:48.908Z,33.55
2019-04-29T06:28:48.892Z,33.85
2019-04-29T06:29:48.880Z,33.55
2019-04-29T06:30:50.119Z,33.55
2019-04-29T06:31:48.856Z,33.75
2019-04-29T06:32:48.850Z,33.65
2019-04-29T06:33:48.864Z,33.05
2019-04-29T06:34:48.822Z,33.65
2019-04-29T06:35:49.061Z,33.05
2019-04-29T06:36:48.800Z,33.85
2019-04-29T06:37:48.791Z,33.85
2019-04-29T06:38:48.779Z,33.55
2019-04-29T06:39:48.797Z,33.75
2019-04-29T06:40:48.756Z,33.75
2019-04-29T06:41:48.745Z,33.25
2019-04-29T06:42:49.455Z,33.35
2019-04-29T06:43:48.724Z,33.25
2019-04-29T06:44:50.499Z,33.95
2019-04-29T06:45:48.731Z,33.85
2019-04-29T06:46:50.177Z,33.35
2019-04-29T06:47:49.677Z,33.85
2019-04-29T06:48:48.667Z,33.25
2019-04-29T06:49:48.657Z,33.25
2019-04-29T06:50:49.847Z,33.75
2019-04-29T06:51:48.671Z,33.35
2019-04-29T06:52:48.627Z,33.25
2019-04-29T06:53:48.612Z,33.25
2019-04-29T06:54:48.601Z,33.35
2019-04-29T06:55:48.591Z,33.25
2019-04-29T06:56:48.580Z,33.15
2019-04-29T06:57:48.601Z,33.35
2019-04-29T06:58:49.118Z,32.65
2019-04-29T06:59:48.677Z,33.25
2019-04-29T07:00:50.859Z,32.65
2019-04-29T07:01:48.524Z,33.75
2019-04-29T07:02:49.915Z,33.15
2019-04-29T07:03:48.529Z,32.75
2019-04-29T07:04:48.491Z,33.35
2019-04-29T07:05:51.403Z,33.45
2019-04-29T07:06:57.253Z,33.35
2019-04-29T07:07:49.455Z,33.35
2019-04-29T07:08:48.449Z,32.65
2019-04-29T07:09:48.757Z,33.35
2019-04-29T07:10:48.426Z,33.75
2019-04-29T07:11:48.413Z,33.15
2019-04-29T07:12:48.513Z,33.35
2019-04-29T07:13:48.392Z,32.75
2019-04-29T07:14:48.381Z,33.25
2019-04-29T07:15:49.035Z,33.25
2019-04-29T07:16:48.359Z,33.35
2019-04-29T07:17:48.349Z,33.25
2019-04-29T07:18:53.427Z,33.15
2019-04-29T07:19:49.325Z,33.35
2019-04-29T07:20:48.316Z,33.75
2019-04-29T07:21:51.385Z,32.86
2019-04-29T07:22:48.294Z,33.25
2019-04-29T07:23:48.281Z,33.35
2019-04-29T07:24:48.271Z,33.85
2019-04-29T07:25:48.262Z,33.85
2019-04-29T07:26:48.248Z,32.86
2019-04-29T07:27:48.263Z,33.65
2019-04-29T07:28:48.785Z,33.95
2019-04-29T07:29:48.215Z,33.75
2019-04-29T07:31:01.071Z,34.05
2019-04-29T07:31:49.191Z,34.05
2019-04-29T07:32:48.973Z,33.75
2019-04-29T07:33:48.205Z,33.75
2019-04-29T07:34:48.160Z,33.65
2019-04-29T07:35:49.580Z,33.75
2019-04-29T07:36:48.140Z,33.65
2019-04-29T07:37:48.126Z,33.75
2019-04-29T07:38:51.740Z,33.75
2019-04-29T07:39:49.134Z,33.85
2019-04-29T07:40:48.162Z,33.55
2019-04-29T07:41:49.623Z,33.55
2019-04-29T07:42:49.099Z,33.65
2019-04-29T07:43:48.076Z,33.55
2019-04-29T07:44:52.369Z,33.75
2019-04-29T07:45:50.069Z,33.75
2019-04-29T07:46:56.804Z,33.75
2019-04-29T07:47:56.253Z,33.95
2019-04-29T07:49:00.706Z,33.55
2019-04-29T07:49:51.498Z,33.25
2019-04-29T07:50:47.983Z,33.85
2019-04-29T07:51:48.079Z,33.35
2019-04-29T07:52:49.925Z,33.35
2019-04-29T07:53:47.985Z,33.35
2019-04-29T07:54:54.705Z,33.35
2019-04-29T07:55:49.571Z,33.65
2019-04-29T07:56:47.919Z,33.35
2019-04-29T07:57:52.138Z,33.75
2019-04-29T07:58:48.684Z,33.75
2019-04-29T07:59:47.907Z,33.75
2019-04-29T08:00:48.772Z,33.35
2019-04-29T08:01:47.877Z,33.65
2019-04-29T08:02:47.851Z,33.55
2019-04-29T08:03:48.574Z,33.15
2019-04-29T08:04:47.830Z,33.65
2019-04-29T08:05:47.818Z,33.75
2019-04-29T08:06:47.807Z,33.65
2019-04-29T08:07:47.795Z,33.75
2019-04-29T08:08:54.786Z,33.65
2019-04-29T08:09:48.825Z,33.15
2019-04-29T08:10:55.999Z,33.45
2019-04-29T08:11:48.750Z,33.45
2019-04-29T08:12:47.739Z,33.15
2019-04-29T08:13:47.729Z,33.45
2019-04-29T08:14:47.718Z,33.55
2019-04-29T08:15:47.713Z,33.65
2019-04-29T08:16:47.696Z,33.45
2019-04-29T08:17:47.691Z,33.45
2019-04-29T08:18:49.513Z,33.15
2019-04-29T08:19:48.661Z,33.15
2019-04-29T08:20:47.650Z,32.95
2019-04-29T08:21:49.688Z,33.15
2019-04-29T08:22:47.630Z,33.15
2019-04-29T08:23:47.619Z,33.15
2019-04-29T08:24:50.389Z,32.95
2019-04-29T08:25:50.630Z,33.15
2019-04-29T08:26:47.961Z,33.15
2019-04-29T08:27:47.594Z,33.35
2019-04-29T08:28:47.563Z,33.45
2019-04-29T08:29:47.553Z,33.65
2019-04-29T08:30:47.541Z,33.45
2019-04-29T08:31:47.533Z,33.45
2019-04-29T08:32:47.519Z,33.35
2019-04-29T08:33:48.497Z,33.45
2019-04-29T08:34:47.497Z,33.65
2019-04-29T08:35:47.486Z,33.45
2019-04-29T08:36:47.475Z,33.55
2019-04-29T08:37:47.464Z,33.65
2019-04-29T08:38:47.453Z,33.65
2019-04-29T08:40:08.288Z,33.95
2019-04-29T08:40:49.918Z,33.55
2019-04-29T08:41:47.420Z,33.65
2019-04-29T08:42:47.409Z,33.65
2019-04-29T08:43:47.398Z,33.45
2019-04-29T08:44:47.388Z,33.15
2019-04-29T08:45:47.398Z,33.05
2019-04-29T08:46:51.761Z,33.05
2019-04-29T08:47:48.352Z,33.35
2019-04-29T08:48:47.342Z,33.25
2019-04-29T08:49:47.332Z,33.05
2019-04-29T08:50:47.321Z,33.15
2019-04-29T08:51:47.339Z,33.44
2019-04-29T08:52:47.298Z,33.45
2019-04-29T08:53:47.287Z,33.45
2019-04-29T08:54:50.709Z,33.34
2019-04-29T08:55:48.266Z,33.35
2019-04-29T08:57:02.462Z,33.73
2019-04-29T08:57:48.249Z,33.63
2019-04-29T08:58:49.389Z,33.73
2019-04-29T08:59:47.221Z,33.53
2019-04-29T09:00:47.209Z,33.53
2019-04-29T09:01:47.199Z,33.34
2019-04-29T09:02:49.212Z,33.34
2019-04-29T09:03:47.187Z,33.73
2019-04-29T09:04:53.683Z,33.73
2019-04-29T09:06:04.342Z,33.53
2019-04-29T09:06:48.141Z,33.73
2019-04-29T09:07:47.133Z,33.83
2019-04-29T09:08:54.686Z,33.73
2019-04-29T09:09:48.581Z,33.63
2019-04-29T09:10:47.110Z,33.83
2019-04-29T09:11:47.962Z,33.73
2019-04-29T09:12:47.077Z,33.73
2019-04-29T09:13:47.066Z,33.73
2019-04-29T09:14:47.055Z,33.53
2019-04-29T09:15:47.068Z,33.73
2019-04-29T09:16:47.033Z,33.73
2019-04-29T09:17:47.024Z,33.73
2019-04-29T09:18:47.011Z,33.63
2019-04-29T09:19:47.003Z,33.73
2019-04-29T09:20:46.989Z,33.83
2019-04-29T09:21:47.011Z,33.53
2019-04-29T09:22:46.967Z,33.73
2019-04-29T09:23:46.955Z,33.73
2019-04-29T09:24:48.133Z,33.73
2019-04-29T09:25:46.933Z,33.63
2019-04-29T09:26:46.922Z,33.73
2019-04-29T09:27:46.950Z,33.53
2019-04-29T09:28:49.615Z,33.63
2019-04-29T09:29:46.891Z,33.53
2019-04-29T09:30:46.878Z,33.63
2019-04-29T09:31:46.868Z,33.83
2019-04-29T09:32:46.857Z,33.63
2019-04-29T09:33:49.132Z,33.63
2019-04-29T09:34:46.833Z,34.03
2019-04-29T09:35:46.824Z,34.03
2019-04-29T09:36:48.424Z,33.83
2019-04-29T09:37:46.802Z,33.34
2019-04-29T09:38:46.789Z,33.23
2019-04-29T09:39:46.818Z,33.73
2019-04-29T09:40:46.771Z,33.63
2019-04-29T09:41:46.794Z,34.03
2019-04-29T09:42:50.160Z,33.73
2019-04-29T09:43:47.737Z,34.03
2019-04-29T09:44:46.724Z,34.03
2019-04-29T09:45:46.751Z,33.34
2019-04-29T09:46:46.703Z,34.03
2019-04-29T09:47:46.691Z,33.73
2019-04-29T09:48:46.681Z,33.73
2019-04-29T09:49:46.671Z,33.44
2019-04-29T09:50:46.659Z,33.73
2019-04-29T09:51:46.657Z,33.63
2019-04-29T09:52:46.636Z,33.83
2019-04-29T09:53:46.625Z,33.83
2019-04-29T09:54:46.615Z,33.14
2019-04-29T09:55:46.604Z,33.04
2019-04-29T09:56:46.592Z,33.44
2019-04-29T09:57:46.590Z,33.53
2019-04-29T09:58:46.568Z,33.34
2019-04-29T09:59:46.558Z,33.44
2019-04-29T10:00:46.546Z,33.63
2019-04-29T10:01:50.605Z,33.63
2019-04-29T10:02:47.558Z,34.92
2019-04-29T10:03:46.513Z,35.03
2019-04-29T10:04:56.402Z,34.83
2019-04-29T10:05:47.496Z,35.13
2019-04-29T10:06:46.485Z,35.14
2019-04-29T10:07:46.471Z,35.13
2019-04-29T10:08:46.489Z,36.14
2019-04-29T10:09:56.886Z,36.34
2019-04-29T10:10:47.437Z,36.34
2019-04-29T10:11:46.428Z,35.84
2019-04-29T10:12:46.458Z,36.46
2019-04-29T10:13:46.405Z,35.46
2019-04-29T10:14:46.399Z,36.65
2019-04-29T10:15:46.383Z,35.46
2019-04-29T10:16:46.372Z,35.66
2019-04-29T10:17:50.845Z,35.46
2019-04-29T10:18:47.347Z,35.46
2019-04-29T10:19:46.336Z,36.46
2019-04-29T10:20:46.338Z,36.25
2019-04-29T10:21:46.316Z,36.65
2019-04-29T10:22:50.256Z,36.95
2019-04-29T10:23:47.298Z,36.46
2019-04-29T10:24:46.283Z,37.35
2019-04-29T10:25:46.271Z,37.15
2019-04-29T10:26:46.267Z,36.76
2019-04-29T10:27:46.254Z,37.15
2019-04-29T10:28:46.239Z,37.05
2019-04-29T10:29:46.228Z,37.05
2019-04-29T10:30:46.217Z,36.76
2019-04-29T10:31:46.206Z,36.65
2019-04-29T10:32:46.206Z,37.85
2019-04-29T10:33:50.218Z,37.55
2019-04-29T10:34:47.170Z,37.65
2019-04-29T10:35:46.294Z,37.55
2019-04-29T10:36:46.149Z,37.55
2019-04-29T10:37:46.138Z,37.65
2019-04-29T10:38:46.134Z,37.47
2019-04-29T10:39:46.117Z,37.55
2019-04-29T10:40:46.105Z,37.55
2019-04-29T10:41:46.094Z,37.37
2019-04-29T10:42:46.085Z,37.35
2019-04-29T10:43:49.352Z,37.45
2019-04-29T10:44:47.068Z,37.05
2019-04-29T10:45:46.050Z,38.35
2019-04-29T10:46:46.044Z,37.75
2019-04-29T10:47:46.028Z,37.95
2019-04-29T10:48:46.017Z,37.65
2019-04-29T10:49:49.291Z,37.77
2019-04-29T10:50:47.206Z,37.77
2019-04-29T10:51:46.982Z,37.85
2019-04-29T10:52:45.972Z,37.77
2019-04-29T10:53:46.649Z,38.46
2019-04-29T10:54:45.949Z,37.85
2019-04-29T10:55:45.940Z,37.75
2019-04-29T10:56:45.939Z,37.97
2019-04-29T10:57:49.834Z,37.95
2019-04-29T10:58:45.906Z,37.85
2019-04-29T10:59:46.204Z,37.85
2019-04-29T11:00:45.883Z,38.25
2019-04-29T11:01:45.872Z,38.07
2019-04-29T11:02:49.476Z,37.85
2019-04-29T11:03:46.848Z,37.97
2019-04-29T11:04:45.841Z,37.77
2019-04-29T11:05:59.808Z,38.27
2019-04-29T11:06:46.817Z,38.17
2019-04-29T11:07:45.807Z,37.87
2019-04-29T11:08:45.817Z,38.27
2019-04-29T11:09:46.345Z,38.37
2019-04-29T11:10:45.774Z,38.96
2019-04-29T11:11:45.763Z,39.06
2019-04-29T11:12:45.752Z,38.96
2019-04-29T11:13:50.173Z,39.16
2019-04-29T11:14:45.744Z,39.06
2019-04-29T11:15:49.457Z,39.26
2019-04-29T11:16:47.111Z,38.76
2019-04-29T11:17:46.439Z,38.86
2019-04-29T11:18:45.687Z,38.76
2019-04-29T11:19:45.674Z,39.16
2019-04-29T11:20:48.939Z,39.06
2019-04-29T11:21:46.650Z,38.86
2019-04-29T11:22:45.641Z,38.86
2019-04-29T11:23:45.629Z,38.96
2019-04-29T11:24:45.619Z,39.16
2019-04-29T11:25:51.050Z,38.76
2019-04-29T11:26:46.618Z,39.16
2019-04-29T11:27:45.586Z,39.06
2019-04-29T11:28:46.994Z,38.86
2019-04-29T11:29:46.561Z,39.16
2019-04-29T11:30:45.551Z,38.86
2019-04-29T11:31:49.049Z,39.16
2019-04-29T11:32:46.537Z,39.16
2019-04-29T11:33:45.519Z,38.76
2019-04-29T11:34:48.627Z,39.56
2019-04-29T11:35:46.496Z,39.16
2019-04-29T11:36:45.489Z,39.16
2019-04-29T11:37:45.474Z,39.68
2019-04-29T11:38:45.472Z,39.08
2019-04-29T11:39:46.165Z,39.06
2019-04-29T11:40:45.441Z,39.66
2019-04-29T11:41:45.431Z,39.48
2019-04-29T11:42:45.420Z,39.46
2019-04-29T11:43:46.717Z,39.28
2019-04-29T11:44:46.418Z,39.86
2019-04-29T11:45:45.386Z,39.78
2019-04-29T11:46:48.987Z,39.18
2019-04-29T11:47:46.362Z,39.08
2019-04-29T11:48:45.354Z,39.48
2019-04-29T11:49:47.962Z,39.68
2019-04-29T11:50:49.612Z,39.48
2019-04-29T11:52:07.883Z,39.68
2019-04-29T11:52:46.305Z,39.18
2019-04-29T11:53:45.298Z,39.48
2019-04-29T11:54:45.285Z,40.18
2019-04-29T11:55:46.443Z,39.16
2019-04-29T11:56:45.296Z,39.68
2019-04-29T11:57:45.253Z,39.38
2019-04-29T11:58:45.243Z,39.48
2019-04-29T11:59:45.232Z,39.18
2019-04-29T12:00:45.231Z,39.18
2019-04-29T12:01:50.833Z,39.28
2019-04-29T12:02:46.264Z,39.46
2019-04-29T12:03:45.186Z,39.48
2019-04-29T12:04:45.176Z,39.58
2019-04-29T12:05:46.239Z,39.26
2019-04-29T12:06:45.153Z,39.26
2019-04-29T12:07:45.144Z,39.46
2019-04-29T12:08:48.252Z,39.58
2019-04-29T12:09:46.119Z,39.66
2019-04-29T12:10:52.035Z,39.36
2019-04-29T12:11:46.096Z,39.18
2019-04-29T12:12:47.703Z,39.26
2019-04-29T12:13:45.077Z,39.58
2019-04-29T12:14:45.097Z,39.26
2019-04-29T12:15:48.864Z,39.16
2019-04-29T12:16:45.041Z,39.56
2019-04-29T12:17:45.034Z,39.66
2019-04-29T12:18:45.023Z,39.16
2019-04-29T12:19:45.009Z,39.58
2019-04-29T12:20:45.006Z,38.86
2019-04-29T12:21:44.991Z,39.96
2019-04-29T12:22:48.766Z,39.06
2019-04-29T12:23:47.725Z,39.46
2019-04-29T12:24:45.953Z,39.66
2019-04-29T12:25:44.943Z,39.46
2019-04-29T12:26:44.992Z,39.66
2019-04-29T12:27:44.921Z,39.76
2019-04-29T12:28:44.931Z,39.06
2019-04-29T12:29:48.832Z,39.76
2019-04-29T12:30:45.887Z,39.76
2019-04-29T12:31:48.838Z,39.26
2019-04-29T12:32:44.877Z,39.16
2019-04-29T12:33:44.855Z,39.06
2019-04-29T12:34:44.844Z,39.06
2019-04-29T12:35:51.872Z,39.06
2019-04-29T12:36:56.165Z,39.56
2019-04-29T12:37:45.832Z,38.86
2019-04-29T12:38:49.412Z,39.86
2019-04-29T12:39:45.786Z,39.96
2019-04-29T12:40:45.621Z,40.06
2019-04-29T12:41:49.057Z,40.16
2019-04-29T12:42:44.753Z,40.56
2019-04-29T12:43:48.671Z,40.46
2019-04-29T12:44:45.926Z,40.06
2019-04-29T12:45:44.722Z,39.86
2019-04-29T12:46:44.710Z,40.46
2019-04-29T12:47:44.700Z,40.06
2019-04-29T12:48:44.687Z,40.66
2019-04-29T12:49:46.441Z,40.64
2019-04-29T12:50:44.667Z,40.66
2019-04-29T12:51:44.682Z,40.14
2019-04-29T12:52:44.644Z,39.94